Time;durP1;ratioP1;P1;durP2;ratioP2;P2;SDS_P1;SDS_P2;PMS_P1;PMS_P2;Temp;Humidity;BMP_temperature;BMP_pressure;BME280_temperature;BME280_humidity;BME280_pressure;Samples;Min_cycle;Max_cycle;Signal;HPM_P1;HPM_P2
2021/03/29 00:00:27;;;;;;;8.18;2.78;;;8.10;66.60;;;;;;4966301;28;20569;-77
2021/03/29 00:02:53;;;;;;;11.68;2.95;;;8.10;67.30;;;;;;4967567;28;20362;-77
2021/03/29 00:05:21;;;;;;;9.02;3.00;;;8.10;67.30;;;;;;4971297;28;20914;-77
2021/03/29 00:07:50;;;;;;;11.90;3.03;;;8.00;67.40;;;;;;4973085;28;20139;-77
2021/03/29 00:10:18;;;;;;;9.30;3.05;;;8.00;68.00;;;;;;4980299;28;20038;-76
2021/03/29 00:12:45;;;;;;;10.50;2.53;;;8.00;69.80;;;;;;4982572;28;20138;-77
2021/03/29 00:15:14;;;;;;;7.47;2.58;;;8.10;69.80;;;;;;4972709;28;20049;-77
2021/03/29 00:17:41;;;;;;;9.52;2.63;;;8.10;69.60;;;;;;4975045;28;20035;-77
2021/03/29 00:20:29;;;;;;;8.95;2.40;;;8.10;69.10;;;;;;4971855;28;20034;-77
2021/03/29 00:22:57;;;;;;;9.75;2.95;;;8.10;68.70;;;;;;4974143;28;20043;-77
2021/03/29 00:25:23;;;;;;;11.55;2.65;;;8.20;69.20;;;;;;4968920;28;20034;-78
2021/03/29 00:27:48;;;;;;;11.80;2.75;;;8.20;68.90;;;;;;4974174;28;20101;-77
2021/03/29 00:30:21;;;;;;;11.10;2.78;;;8.20;68.90;;;;;;4971799;28;20080;-77
2021/03/29 00:32:47;;;;;;;7.40;2.08;;;8.10;68.90;;;;;;4970008;28;20066;-77
2021/03/29 00:35:22;;;;;;;5.38;2.00;;;8.10;69.20;;;;;;4967463;28;20558;-77
2021/03/29 00:37:57;;;;;;;18.15;2.80;;;8.10;69.80;;;;;;4982438;28;20066;-77
2021/03/29 00:40:24;;;;;;;10.13;2.83;;;8.10;69.40;;;;;;4967564;28;20456;-77
2021/03/29 00:42:56;;;;;;;9.95;2.75;;;8.10;70.00;;;;;;4972798;28;20078;-77
2021/03/29 00:45:22;;;;;;;8.30;2.60;;;8.00;69.90;;;;;;4973668;28;20101;-77
2021/03/29 00:47:49;;;;;;;5.80;2.40;;;8.00;70.20;;;;;;4974121;28;20027;-76
2021/03/29 00:50:21;;;;;;;10.90;2.88;;;8.00;71.40;;;;;;4974803;28;20035;-78
2021/03/29 00:52:48;;;;;;;8.98;2.63;;;8.00;71.20;;;;;;4975265;28;20041;-78
2021/03/29 00:55:14;;;;;;;5.88;2.58;;;7.90;72.10;;;;;;4981482;28;20058;-77
2021/03/29 00:57:41;;;;;;;7.95;3.03;;;8.00;72.10;;;;;;4971577;28;21091;-77
2021/03/29 01:00:20;;;;;;;11.48;2.33;;;7.90;72.00;;;;;;4971618;28;20114;-77
2021/03/29 01:02:46;;;;;;;8.35;3.00;;;7.90;72.60;;;;;;4979819;28;20039;-77
2021/03/29 01:05:20;;;;;;;10.57;2.58;;;7.90;72.60;;;;;;4970078;28;20483;-78
2021/03/29 01:07:49;;;;;;;6.75;2.90;;;7.80;72.80;;;;;;4976368;28;20063;-77
2021/03/29 01:10:15;;;;;;;8.55;2.78;;;7.80;72.80;;;;;;4969516;28;20034;-78
2021/03/29 01:12:42;;;;;;;8.85;2.75;;;7.80;73.00;;;;;;4968815;28;20432;-78
2021/03/29 01:15:10;;;;;;;8.02;2.22;;;7.70;73.00;;;;;;4972755;28;20110;-78
2021/03/29 01:17:38;;;;;;;9.15;2.90;;;7.70;73.70;;;;;;4969203;28;20046;-77
2021/03/29 01:20:04;;;;;;;6.47;2.85;;;7.70;75.20;;;;;;4978163;28;20043;-76
2021/03/29 01:22:42;;;;;;;10.45;2.97;;;7.70;74.70;;;;;;4980659;28;20039;-76
2021/03/29 01:25:09;;;;;;;10.43;2.80;;;7.60;75.40;;;;;;4967874;28;20496;-76
2021/03/29 01:27:40;;;;;;;9.75;2.38;;;7.60;75.70;;;;;;4971646;28;20373;-76
2021/03/29 01:30:08;;;;;;;7.40;2.33;;;7.60;76.10;;;;;;5002109;23;20466;-74
2021/03/29 01:32:34;;;;;;;11.90;2.83;;;7.50;77.30;;;;;;4987271;28;20042;-74
2021/03/29 01:35:05;;;;;;;7.90;2.20;;;7.40;77.50;;;;;;4988601;28;20066;-72
2021/03/29 01:37:30;;;;;;;10.82;2.60;;;7.50;77.80;;;;;;5002321;28;20034;-74
2021/03/29 01:39:56;;;;;;;8.73;2.42;;;7.40;77.00;;;;;;4987792;28;20735;-73
2021/03/29 01:42:23;;;;;;;15.32;3.10;;;7.50;76.70;;;;;;4988785;28;20127;-73
2021/03/29 01:44:49;;;;;;;9.20;2.53;;;7.40;76.60;;;;;;4988036;28;20125;-72
2021/03/29 01:47:16;;;;;;;11.25;2.78;;;7.40;77.00;;;;;;4988438;28;20547;-74
2021/03/29 01:49:42;;;;;;;9.23;2.72;;;7.30;77.10;;;;;;4987489;28;20030;-74
2021/03/29 01:52:09;;;;;;;12.32;2.30;;;7.30;77.40;;;;;;4987376;28;20034;-74
2021/03/29 01:54:36;;;;;;;8.80;2.97;;;7.20;77.60;;;;;;4987342;28;20097;-74
2021/03/29 01:57:09;;;;;;;10.43;2.28;;;7.20;77.80;;;;;;4990261;28;20125;-72
2021/03/29 01:59:37;;;;;;;8.60;2.63;;;7.20;78.50;;;;;;5000315;28;20097;-72
2021/03/29 02:02:04;;;;;;;12.70;2.90;;;7.10;79.40;;;;;;4987576;28;20031;-73
2021/03/29 02:04:30;;;;;;;10.82;2.72;;;7.10;79.90;;;;;;4989012;28;20045;-73
2021/03/29 02:06:58;;;;;;;6.82;2.10;;;7.10;79.50;;;;;;4990305;28;20046;-74
2021/03/29 02:09:25;;;;;;;8.82;2.53;;;7.10;80.30;;;;;;4990910;28;20046;-73
2021/03/29 02:11:51;;;;;;;11.82;4.03;;;7.00;80.10;;;;;;4994659;28;20141;-75
2021/03/29 02:14:19;;;;;;;6.95;2.47;;;7.00;80.00;;;;;;4993491;28;20034;-74
2021/03/29 02:16:47;;;;;;;10.45;2.50;;;7.00;81.30;;;;;;4989496;28;20127;-74
2021/03/29 02:19:13;;;;;;;7.40;2.20;;;6.90;80.90;;;;;;4989506;28;20033;-73
2021/03/29 02:21:40;;;;;;;11.65;2.63;;;6.90;82.10;;;;;;4987806;28;20427;-73
2021/03/29 02:24:09;;;;;;;5.63;1.77;;;6.90;81.50;;;;;;4989576;28;20057;-73
2021/03/29 02:26:38;;;;;;;6.95;1.98;;;6.90;81.30;;;;;;4991028;28;20042;-72
2021/03/29 02:29:05;;;;;;;6.85;2.42;;;6.80;81.40;;;;;;4986403;28;20045;-72
2021/03/29 02:31:30;;;;;;;7.32;2.28;;;6.80;81.90;;;;;;4990266;28;20053;-72
2021/03/29 02:34:01;;;;;;;10.30;2.50;;;6.80;82.60;;;;;;4987764;28;20038;-73
2021/03/29 02:36:27;;;;;;;11.55;2.40;;;6.80;82.20;;;;;;4999159;28;20069;-72
2021/03/29 02:38:53;;;;;;;17.42;3.17;;;6.80;82.30;;;;;;4988033;28;20038;-74
2021/03/29 02:41:28;;;;;;;8.02;2.03;;;6.80;82.70;;;;;;4990504;28;20042;-73
2021/03/29 02:43:55;;;;;;;5.47;1.95;;;6.80;83.00;;;;;;4987614;28;20042;-72
2021/03/29 02:46:26;;;;;;;10.40;2.60;;;6.80;82.60;;;;;;4986462;28;20140;-73
2021/03/29 02:48:55;;;;;;;10.18;2.10;;;6.70;83.80;;;;;;4989511;28;20034;-73
2021/03/29 02:51:22;;;;;;;9.45;2.30;;;6.70;83.70;;;;;;4990306;28;20579;-73
2021/03/29 02:54:00;;;;;;;11.27;2.08;;;6.60;86.30;;;;;;4990996;28;20065;-73
2021/03/29 02:56:31;;;;;;;7.50;2.80;;;6.60;86.70;;;;;;4992477;28;20065;-73
2021/03/29 02:59:14;;;;;;;12.85;2.78;;;6.70;86.60;;;;;;4991644;28;20431;-73
2021/03/29 03:01:40;;;;;;;5.53;2.65;;;6.60;86.80;;;;;;4994478;28;20462;-74
2021/03/29 03:04:12;;;;;;;5.07;2.17;;;6.60;87.20;;;;;;4989490;28;20038;-73
2021/03/29 03:06:39;;;;;;;5.18;1.95;;;6.50;87.30;;;;;;4993038;28;20563;-73
2021/03/29 03:09:07;;;;;;;12.55;2.40;;;6.50;87.60;;;;;;4991643;28;20053;-74
2021/03/29 03:11:34;;;;;;;4.53;2.20;;;6.50;88.10;;;;;;5009426;28;20124;-73
2021/03/29 03:14:03;;;;;;;7.65;2.30;;;6.40;87.90;;;;;;4994621;28;20038;-73
2021/03/29 03:16:30;;;;;;;6.82;2.05;;;6.40;88.40;;;;;;5018519;28;20042;-73
2021/03/29 03:18:56;;;;;;;7.65;2.30;;;6.30;88.80;;;;;;5016855;28;20025;-74
2021/03/29 03:21:21;;;;;;;9.00;2.60;;;6.30;88.80;;;;;;4995749;28;20038;-73
2021/03/29 03:23:55;;;;;;;6.32;2.05;;;6.30;89.10;;;;;;4995147;28;20125;-73
2021/03/29 03:26:22;;;;;;;5.93;2.43;;;6.30;89.80;;;;;;5006591;28;20045;-73
2021/03/29 03:28:48;;;;;;;10.90;2.83;;;6.20;90.00;;;;;;5001759;28;20293;-72
2021/03/29 03:31:14;;;;;;;8.48;2.65;;;6.20;90.60;;;;;;4992759;28;20089;-73
2021/03/29 03:33:40;;;;;;;11.40;2.60;;;6.20;90.70;;;;;;4993339;28;20046;-72
2021/03/29 03:36:06;;;;;;;8.95;2.30;;;6.20;91.40;;;;;;4992814;28;20474;-72
2021/03/29 03:38:35;;;;;;;7.93;2.78;;;6.20;91.50;;;;;;4995197;28;20038;-72
2021/03/29 03:41:09;;;;;;;7.85;2.35;;;6.10;91.40;;;;;;4996706;28;20125;-73
2021/03/29 03:43:48;;;;;;;9.18;2.45;;;6.10;91.30;;;;;;4996689;28;20050;-74
2021/03/29 03:46:36;;;;;;;9.68;2.85;;;6.00;91.60;;;;;;4996600;28;20042;-73
2021/03/29 03:49:15;;;;;;;19.13;2.67;;;6.10;91.60;;;;;;4994861;28;20147;-72
2021/03/29 03:51:43;;;;;;;7.22;2.60;;;6.10;91.70;;;;;;4998112;28;20556;-73
2021/03/29 03:54:09;;;;;;;11.10;2.67;;;6.00;91.70;;;;;;4995207;28;20045;-75
2021/03/29 03:56:36;;;;;;;13.63;2.55;;;6.00;91.80;;;;;;4996988;28;20042;-73
2021/03/29 03:59:04;;;;;;;8.70;2.85;;;5.90;91.60;;;;;;5000213;28;20038;-73
2021/03/29 04:02:03;;;;;;;6.55;3.05;;;5.90;92.10;;;;;;4998405;28;20427;-74
2021/03/29 04:04:29;;;;;;;8.20;3.00;;;5.90;92.10;;;;;;5001719;28;20514;-73
2021/03/29 04:06:57;;;;;;;7.55;2.10;;;5.90;92.10;;;;;;5003324;28;20049;-74
2021/03/29 04:09:30;;;;;;;11.02;2.60;;;6.00;92.40;;;;;;4994921;28;20605;-75
2021/03/29 04:11:56;;;;;;;7.45;2.50;;;5.90;92.50;;;;;;4996902;28;20503;-75
2021/03/29 04:14:21;;;;;;;13.23;2.72;;;5.90;92.70;;;;;;4996706;28;20042;-74
2021/03/29 04:16:47;;;;;;;7.82;2.40;;;5.90;92.90;;;;;;4997663;28;20121;-74
2021/03/29 04:19:12;;;;;;;6.30;2.15;;;5.80;92.70;;;;;;4996072;28;20172;-75
2021/03/29 04:21:38;;;;;;;15.45;3.17;;;5.90;93.40;;;;;;4999557;28;20073;-74
2021/03/29 04:24:04;;;;;;;9.30;2.83;;;5.90;93.30;;;;;;4996219;28;20046;-74
2021/03/29 04:26:30;;;;;;;11.85;2.85;;;5.90;93.10;;;;;;4998244;28;20038;-74
2021/03/29 04:28:55;;;;;;;8.48;2.70;;;6.00;93.40;;;;;;4994712;28;20068;-72
2021/03/29 04:31:21;;;;;;;11.38;2.60;;;6.00;93.20;;;;;;4994485;28;20064;-72
2021/03/29 04:33:46;;;;;;;7.32;2.22;;;6.10;93.00;;;;;;5000196;28;20053;-74
2021/03/29 04:36:12;;;;;;;7.90;2.63;;;6.10;93.30;;;;;;5002069;28;20041;-73
2021/03/29 04:38:37;;;;;;;11.80;3.00;;;6.20;93.10;;;;;;5000803;28;20042;-72
2021/03/29 04:41:05;;;;;;;12.80;2.75;;;6.30;92.70;;;;;;4995546;28;20030;-74
2021/03/29 04:43:31;;;;;;;8.45;2.88;;;6.30;92.50;;;;;;4996469;28;20066;-74
2021/03/29 04:45:56;;;;;;;14.52;2.70;;;6.40;92.60;;;;;;4999543;28;20132;-74
2021/03/29 04:48:22;;;;;;;18.65;3.25;;;6.40;92.30;;;;;;4994335;28;20457;-74
2021/03/29 04:50:48;;;;;;;7.47;3.25;;;6.50;92.40;;;;;;4993119;28;20042;-74
2021/03/29 04:53:13;;;;;;;9.73;2.60;;;6.50;92.20;;;;;;4991427;28;20034;-74
2021/03/29 04:55:39;;;;;;;12.10;2.97;;;6.50;92.10;;;;;;4992135;28;20042;-72
2021/03/29 04:58:04;;;;;;;10.68;3.13;;;6.50;92.00;;;;;;4987374;28;20031;-73
2021/03/29 05:00:30;;;;;;;7.13;2.20;;;6.60;92.20;;;;;;4991451;28;20038;-72
2021/03/29 05:02:56;;;;;;;7.20;3.00;;;6.60;92.00;;;;;;4990143;28;20096;-72
2021/03/29 05:05:21;;;;;;;12.98;2.83;;;6.60;91.60;;;;;;4993341;28;20973;-72
2021/03/29 05:07:47;;;;;;;5.45;2.80;;;6.60;91.50;;;;;;4990779;28;20065;-74
2021/03/29 05:10:13;;;;;;;12.95;3.17;;;6.70;91.40;;;;;;4990691;28;21121;-73
2021/03/29 05:12:39;;;;;;;9.45;2.67;;;6.70;91.30;;;;;;4994509;28;20133;-74
2021/03/29 05:15:07;;;;;;;9.45;2.83;;;6.70;91.20;;;;;;4990042;28;20161;-73
2021/03/29 05:17:33;;;;;;;11.25;3.20;;;6.80;91.40;;;;;;4991708;28;20042;-74
2021/03/29 05:19:59;;;;;;;8.82;3.20;;;6.80;90.70;;;;;;4990055;28;20129;-74
2021/03/29 05:22:25;;;;;;;10.73;3.10;;;6.90;90.40;;;;;;4998426;28;20173;-74
2021/03/29 05:24:50;;;;;;;15.45;3.17;;;6.90;90.30;;;;;;4996710;28;20045;-74
2021/03/29 05:27:16;;;;;;;8.02;3.20;;;7.00;90.40;;;;;;4989735;28;20041;-73
2021/03/29 05:29:42;;;;;;;12.40;2.78;;;7.00;90.30;;;;;;4992417;28;20077;-73
2021/03/29 05:32:13;;;;;;;10.55;3.25;;;7.10;90.20;;;;;;4986911;28;20074;-73
2021/03/29 05:34:39;;;;;;;10.75;3.10;;;7.10;90.10;;;;;;4988294;28;20045;-73
2021/03/29 05:37:05;;;;;;;11.23;2.97;;;7.20;90.50;;;;;;4986872;28;20042;-73
2021/03/29 05:39:31;;;;;;;12.52;3.13;;;7.30;90.10;;;;;;4968370;28;20062;-72
2021/03/29 05:41:56;;;;;;;9.38;2.80;;;7.30;88.70;;;;;;4970031;28;20035;-74
2021/03/29 05:44:22;;;;;;;9.05;3.03;;;7.40;88.80;;;;;;4971165;28;20464;-71
2021/03/29 05:46:48;;;;;;;11.60;2.65;;;7.40;90.00;;;;;;4970505;28;20093;-72
2021/03/29 05:49:14;;;;;;;8.68;2.60;;;7.50;88.30;;;;;;4969403;28;20527;-73
2021/03/29 05:51:40;;;;;;;11.07;3.15;;;7.50;87.60;;;;;;4971189;28;20046;-73
2021/03/29 05:54:07;;;;;;;13.25;3.20;;;7.60;86.60;;;;;;4972193;28;20464;-73
2021/03/29 05:56:38;;;;;;;10.23;2.60;;;7.60;87.20;;;;;;4981263;28;20038;-72
2021/03/29 05:59:09;;;;;;;8.43;2.20;;;7.70;87.10;;;;;;4990178;28;20033;-72
2021/03/29 06:01:49;;;;;;;14.65;2.90;;;7.80;86.30;;;;;;4996204;28;20046;-72
2021/03/29 06:04:36;;;;;;;12.15;2.95;;;7.90;84.30;;;;;;4997053;28;20037;-76
2021/03/29 06:07:09;;;;;;;8.63;2.92;;;7.90;83.90;;;;;;4999579;28;20129;-75
2021/03/29 06:09:35;;;;;;;13.50;3.75;;;8.00;83.80;;;;;;5000884;28;20043;-72
2021/03/29 06:12:00;;;;;;;11.43;3.00;;;8.00;82.80;;;;;;5004645;28;20107;-73
2021/03/29 06:14:29;;;;;;;11.48;3.13;;;8.10;82.10;;;;;;5004174;28;20089;-74
2021/03/29 06:17:05;;;;;;;16.75;2.75;;;8.10;83.60;;;;;;4995699;28;20505;-72
2021/03/29 06:19:43;;;;;;;8.90;3.35;;;8.20;81.90;;;;;;5010333;28;20050;-73
2021/03/29 06:22:15;;;;;;;19.50;2.83;;;8.20;83.10;;;;;;5006986;28;20035;-72
2021/03/29 06:24:51;;;;;;;15.32;3.25;;;8.30;82.90;;;;;;5002159;28;20495;-73
2021/03/29 06:27:18;;;;;;;7.80;2.83;;;8.40;82.00;;;;;;4993550;28;20129;-73
2021/03/29 06:29:44;;;;;;;9.77;3.58;;;8.70;80.50;;;;;;5001579;28;20411;-73
2021/03/29 06:32:10;;;;;;;10.68;3.10;;;8.80;78.00;;;;;;4997108;28;20044;-72
2021/03/29 06:34:36;;;;;;;22.65;3.58;;;9.00;77.70;;;;;;4992753;28;20054;-73
2021/03/29 06:37:08;;;;;;;18.65;3.53;;;9.30;74.20;;;;;;5004081;28;20034;-71
2021/03/29 06:39:39;;;;;;;15.70;3.03;;;9.50;71.40;;;;;;4992458;28;20033;-72
2021/03/29 06:42:05;;;;;;;16.55;3.55;;;9.60;68.70;;;;;;4992897;28;20411;-73
2021/03/29 06:44:36;;;;;;;20.05;3.42;;;9.70;67.60;;;;;;4992675;28;20092;-73
2021/03/29 06:47:13;;;;;;;21.33;3.65;;;9.80;67.30;;;;;;4991213;28;20042;-73
2021/03/29 06:49:49;;;;;;;14.18;4.10;;;9.90;66.60;;;;;;4990890;28;20108;-73
2021/03/29 06:52:28;;;;;;;16.13;3.22;;;9.90;67.30;;;;;;4992989;28;20042;-73
2021/03/29 06:55:14;;;;;;;16.23;3.67;;;10.00;63.80;;;;;;4993400;28;20041;-73
2021/03/29 06:57:40;;;;;;;18.90;3.75;;;10.10;64.90;;;;;;4993859;28;20035;-73
2021/03/29 07:00:12;;;;;;;18.33;4.28;;;10.20;63.80;;;;;;4992286;28;20129;-72
2021/03/29 07:02:40;;;;;;;23.08;3.83;;;10.30;63.50;;;;;;4993195;28;20034;-72
2021/03/29 07:05:07;;;;;;;21.67;4.10;;;10.40;62.30;;;;;;4998131;28;20086;-73
2021/03/29 07:07:34;;;;;;;25.95;4.57;;;10.50;61.80;;;;;;4992274;28;20035;-73
2021/03/29 07:10:01;;;;;;;11.18;3.65;;;10.70;60.90;;;;;;4990939;28;20398;-73
2021/03/29 07:12:33;;;;;;;16.85;4.07;;;10.80;59.80;;;;;;4994545;28;20106;-72
2021/03/29 07:15:02;;;;;;;23.85;4.63;;;10.90;59.10;;;;;;4990529;28;20038;-72
2021/03/29 07:17:30;;;;;;;17.30;4.03;;;11.10;57.00;;;;;;4991680;28;20038;-73
2021/03/29 07:19:56;;;;;;;18.55;4.13;;;11.20;58.10;;;;;;4993363;28;20538;-73
2021/03/29 07:22:23;;;;;;;22.50;4.28;;;11.40;57.00;;;;;;4992420;28;20038;-72
2021/03/29 07:24:49;;;;;;;21.23;4.03;;;11.60;56.20;;;;;;4993823;28;20030;-73
2021/03/29 07:27:18;;;;;;;23.77;4.03;;;12.00;55.70;;;;;;4987781;28;20046;-72
2021/03/29 07:29:48;;;;;;;32.35;4.88;;;12.10;50.10;;;;;;5010635;23;20057;-77
2021/03/29 07:32:31;;;;;;;23.10;4.10;;;12.20;49.30;;;;;;4992947;28;20044;-77
2021/03/29 07:34:58;;;;;;;16.75;3.92;;;12.30;50.20;;;;;;4986443;28;20027;-78
2021/03/29 07:37:43;;;;;;;17.30;4.30;;;12.30;49.30;;;;;;4998054;28;20041;-76
2021/03/29 07:40:18;;;;;;;29.17;6.07;;;12.40;49.60;;;;;;4992571;28;20068;-78
2021/03/29 07:42:54;;;;;;;17.63;4.50;;;12.50;49.50;;;;;;4993244;28;20065;-77
2021/03/29 07:45:24;;;;;;;21.88;4.40;;;12.50;48.90;;;;;;4984600;28;20034;-77
2021/03/29 07:47:57;;;;;;;32.30;5.63;;;12.50;48.80;;;;;;4986065;28;20038;-77
2021/03/29 07:50:26;;;;;;;15.07;4.30;;;12.70;48.70;;;;;;4990907;28;20038;-77
2021/03/29 07:52:59;;;;;;;23.13;5.53;;;13.00;47.30;;;;;;4988605;28;20046;-77
2021/03/29 07:55:26;;;;;;;18.75;5.05;;;13.00;47.00;;;;;;4992417;28;20573;-79
2021/03/29 07:57:51;;;;;;;28.80;4.80;;;13.30;45.80;;;;;;4988165;28;20046;-78
2021/03/29 08:00:23;;;;;;;21.52;4.22;;;13.20;44.50;;;;;;4988589;28;20034;-78
2021/03/29 08:02:49;;;;;;;16.05;4.18;;;13.40;43.70;;;;;;4990272;28;20044;-77
2021/03/29 08:05:16;;;;;;;15.45;5.15;;;13.60;43.70;;;;;;4990594;28;20126;-79
2021/03/29 08:07:48;;;;;;;20.85;4.25;;;14.10;43.60;;;;;;4988582;28;20045;-76
2021/03/29 08:10:16;;;;;;;18.58;4.07;;;14.10;41.00;;;;;;4998941;28;20035;-79
2021/03/29 08:12:58;;;;;;;19.65;4.07;;;14.50;39.80;;;;;;4992245;28;20030;-77
2021/03/29 08:16:03;;;;;;;13.95;4.63;;;14.70;38.50;;;;;;4990667;28;20135;-77
2021/03/29 08:18:29;;;;;;;13.40;3.97;;;14.60;38.60;;;;;;4989320;28;20121;-78
2021/03/29 08:20:56;;;;;;;16.92;3.88;;;15.00;37.20;;;;;;4991536;28;20495;-78
2021/03/29 08:23:43;;;;;;;18.98;4.75;;;15.60;36.40;;;;;;4991859;28;20042;-77
2021/03/29 08:26:19;;;;;;;14.95;4.07;;;15.80;34.20;;;;;;4994776;28;20035;-78
2021/03/29 08:29:06;;;;;;;13.80;4.03;;;15.50;33.90;;;;;;4999252;28;20076;-78
2021/03/29 08:31:57;;;;;;;19.33;4.05;;;15.80;32.80;;;;;;4994687;28;20042;-78
2021/03/29 08:34:22;;;;;;;21.00;4.65;;;15.90;33.30;;;;;;4995332;28;20030;-78
2021/03/29 08:36:49;;;;;;;11.20;4.03;;;15.80;33.10;;;;;;4994303;28;20045;-78
2021/03/29 08:39:16;;;;;;;18.58;3.78;;;15.90;32.50;;;;;;4992706;28;20038;-77
2021/03/29 08:41:43;;;;;;;30.33;3.53;;;16.20;31.60;;;;;;4996473;28;20052;-78
2021/03/29 08:44:10;;;;;;;9.95;3.72;;;16.00;30.60;;;;;;4997444;28;20125;-78
2021/03/29 08:46:37;;;;;;;12.02;3.35;;;16.10;30.10;;;;;;4996743;28;20521;-78
2021/03/29 08:49:08;;;;;;;21.98;3.75;;;16.20;29.80;;;;;;4995953;28;20046;-78
2021/03/29 08:51:34;;;;;;;16.27;3.40;;;16.50;29.80;;;;;;4995734;28;20609;-78
2021/03/29 08:54:07;;;;;;;9.98;3.42;;;16.80;29.50;;;;;;4996151;28;20333;-79
2021/03/29 08:56:40;;;;;;;15.95;3.63;;;17.20;28.20;;;;;;5000556;28;20079;-77
2021/03/29 08:59:08;;;;;;;11.43;3.72;;;17.50;27.60;;;;;;5007306;28;20474;-77
2021/03/29 09:01:34;;;;;;;20.63;3.47;;;18.50;25.40;;;;;;4994393;28;20049;-77
2021/03/29 09:04:03;;;;;;;12.35;2.85;;;18.60;24.10;;;;;;4996390;28;20737;-78
2021/03/29 09:06:31;;;;;;;21.45;3.50;;;18.90;23.50;;;;;;4993207;28;20034;-78
2021/03/29 09:08:57;;;;;;;13.95;4.07;;;19.30;22.50;;;;;;4989799;28;20046;-78
2021/03/29 09:11:23;;;;;;;13.98;3.60;;;19.90;22.50;;;;;;4990775;28;20034;-78
2021/03/29 09:13:54;;;;;;;18.35;4.03;;;19.60;22.10;;;;;;4990459;28;20039;-78
2021/03/29 09:16:26;;;;;;;14.02;3.60;;;20.00;21.30;;;;;;4997363;28;20042;-80
2021/03/29 09:18:52;;;;;;;22.55;3.15;;;20.90;19.10;;;;;;4991120;28;20294;-77
2021/03/29 09:21:26;;;;;;;10.38;2.38;;;21.00;18.40;;;;;;4995492;28;20034;-77
2021/03/29 09:23:51;;;;;;;14.75;3.25;;;21.60;17.30;;;;;;4994155;28;20523;-76
2021/03/29 09:26:25;;;;;;;8.70;2.53;;;22.20;16.50;;;;;;4993387;28;20035;-76
2021/03/29 09:28:53;;;;;;;8.85;2.80;;;22.20;16.10;;;;;;4988969;28;20571;-79
2021/03/29 09:31:24;;;;;;;8.27;3.25;;;22.60;15.60;;;;;;4992057;28;20080;-77
2021/03/29 09:33:52;;;;;;;7.78;2.40;;;22.80;15.30;;;;;;4988733;28;20337;-77
2021/03/29 09:36:19;;;;;;;13.75;2.58;;;23.30;15.20;;;;;;4991798;28;20089;-77
2021/03/29 09:38:49;;;;;;;14.90;3.33;;;22.60;14.60;;;;;;4989621;28;20138;-78
2021/03/29 09:41:21;;;;;;;10.15;2.22;;;24.10;15.10;;;;;;4990303;28;20057;-78
2021/03/29 09:43:48;;;;;;;10.77;2.88;;;24.50;13.10;;;;;;4987890;28;20046;-77
2021/03/29 09:46:15;;;;;;;11.68;3.08;;;25.00;12.80;;;;;;4988240;28;20149;-78
2021/03/29 09:48:41;;;;;;;7.35;3.13;;;24.90;12.80;;;;;;4989881;28;20122;-78
2021/03/29 09:51:21;;;;;;;10.82;3.03;;;25.00;12.00;;;;;;4992395;28;20117;-78
2021/03/29 09:53:48;;;;;;;9.07;2.72;;;25.20;12.60;;;;;;4991388;28;20048;-78
2021/03/29 09:56:25;;;;;;;10.55;3.38;;;25.20;11.70;;;;;;4988438;28;20507;-78
2021/03/29 09:58:50;;;;;;;15.35;3.15;;;25.10;12.10;;;;;;4987454;28;20060;-77
2021/03/29 10:01:18;;;;;;;15.05;2.40;;;25.30;12.00;;;;;;4986294;28;20074;-77
2021/03/29 10:04:14;;;;;;;11.40;3.25;;;24.80;12.30;;;;;;4988827;28;20487;-80
2021/03/29 10:06:54;;;;;;;14.23;3.30;;;25.20;11.80;;;;;;4994822;28;20042;-78
2021/03/29 10:09:33;;;;;;;8.18;2.63;;;25.20;11.40;;;;;;4984650;28;20030;-78
2021/03/29 10:12:01;;;;;;;10.93;2.53;;;25.10;11.60;;;;;;4985288;28;20062;-78
2021/03/29 10:14:36;;;;;;;10.05;3.03;;;25.80;12.20;;;;;;4989139;28;20069;-78
2021/03/29 10:17:03;;;;;;;9.07;2.63;;;26.90;11.40;;;;;;4985063;28;20042;-79
2021/03/29 10:19:34;;;;;;;11.35;2.53;;;26.30;11.00;;;;;;4986904;28;20089;-79
2021/03/29 10:21:59;;;;;;;8.45;2.42;;;25.60;11.30;;;;;;4986930;28;20058;-79
2021/03/29 10:24:25;;;;;;;10.77;2.20;;;26.20;10.60;;;;;;4991225;28;20125;-78
2021/03/29 10:26:56;;;;;;;10.30;3.05;;;26.30;10.70;;;;;;4986710;28;20499;-77
2021/03/29 10:29:39;;;;;;;11.45;3.22;;;25.90;10.80;;;;;;4990766;28;20133;-77
2021/03/29 10:32:06;;;;;;;12.07;2.88;;;25.90;10.60;;;;;;4989648;28;20426;-78
2021/03/29 10:34:34;;;;;;;13.85;3.15;;;27.00;10.00;;;;;;4991984;28;20406;-78
2021/03/29 10:36:59;;;;;;;9.63;2.85;;;27.30;9.70;;;;;;4990319;28;20042;-79
2021/03/29 10:39:25;;;;;;;15.35;2.40;;;26.80;9.30;;;;;;4995329;28;20376;-78
2021/03/29 10:41:51;;;;;;;7.60;2.17;;;26.70;9.20;;;;;;4994332;28;20100;-78
2021/03/29 10:44:16;;;;;;;10.10;3.30;;;27.10;9.40;;;;;;4993263;28;20065;-77
2021/03/29 10:46:42;;;;;;;9.40;1.90;;;27.30;9.10;;;;;;4990804;28;20063;-77
2021/03/29 10:49:09;;;;;;;11.35;2.58;;;26.90;8.80;;;;;;4990645;28;20522;-78
2021/03/29 10:51:36;;;;;;;7.32;2.50;;;27.50;9.40;;;;;;4990851;28;20431;-78
2021/03/29 10:54:03;;;;;;;18.20;2.35;;;26.90;9.80;;;;;;4989406;28;20046;-78
2021/03/29 10:56:28;;;;;;;9.85;2.40;;;27.10;9.30;;;;;;5000348;28;20041;-78
2021/03/29 10:58:54;;;;;;;17.40;6.95;;;27.20;8.20;;;;;;4982716;28;20042;-77
2021/03/29 11:01:19;;;;;;;7.88;2.40;;;28.10;7.80;;;;;;4985401;28;21520;-78
2021/03/29 11:03:45;;;;;;;8.48;1.92;;;27.40;7.10;;;;;;4984337;28;20537;-78
2021/03/29 11:06:11;;;;;;;9.50;2.08;;;27.20;6.40;;;;;;4987254;28;20042;-79
2021/03/29 11:08:36;;;;;;;4.45;1.85;;;28.00;7.20;;;;;;4988901;28;20422;-76
2021/03/29 11:11:02;;;;;;;8.73;2.42;;;28.30;6.60;;;;;;4988636;28;20034;-77
2021/03/29 11:13:27;;;;;;;12.85;1.88;;;27.50;6.50;;;;;;4989716;28;20044;-79
2021/03/29 11:15:55;;;;;;;5.30;2.03;;;27.90;7.00;;;;;;4990103;28;20045;-78
2021/03/29 11:18:21;;;;;;;7.22;2.78;;;27.70;6.90;;;;;;4989516;28;20057;-79
2021/03/29 11:20:47;;;;;;;7.03;2.30;;;27.80;7.50;;;;;;4991157;28;20101;-78
2021/03/29 11:23:13;;;;;;;10.35;2.13;;;28.70;6.00;;;;;;4992580;28;20431;-78
2021/03/29 11:25:38;;;;;;;25.08;2.53;;;27.60;7.00;;;;;;4991697;28;20411;-77
2021/03/29 11:28:04;;;;;;;11.80;2.17;;;28.10;6.60;;;;;;4991707;28;20077;-79
2021/03/29 11:30:30;;;;;;;7.18;2.40;;;27.80;6.30;;;;;;4993014;28;20038;-79
2021/03/29 11:32:56;;;;;;;14.88;4.43;;;27.80;5.90;;;;;;4991678;28;20034;-78
2021/03/29 11:35:21;;;;;;;7.78;2.03;;;28.70;5.50;;;;;;4991290;28;20571;-78
2021/03/29 11:37:47;;;;;;;8.30;2.05;;;28.90;5.20;;;;;;4991248;28;20526;-78
2021/03/29 11:40:13;;;;;;;11.38;2.05;;;28.50;5.60;;;;;;4991751;28;20547;-78
2021/03/29 11:42:40;;;;;;;8.23;1.75;;;28.20;5.40;;;;;;4991741;28;20038;-77
2021/03/29 11:45:08;;;;;;;7.60;1.80;;;27.40;4.10;;;;;;4989604;28;20480;-77
2021/03/29 11:47:34;;;;;;;8.55;1.90;;;28.40;5.40;;;;;;4991967;28;20658;-77
2021/03/29 11:49:59;;;;;;;12.50;1.90;;;28.20;5.30;;;;;;4997576;28;20121;-77
2021/03/29 11:52:25;;;;;;;7.78;3.00;;;28.40;5.40;;;;;;4990072;28;20034;-77
2021/03/29 11:54:50;;;;;;;17.08;2.35;;;28.30;5.50;;;;;;4987569;28;20035;-77
2021/03/29 11:57:18;;;;;;;7.75;2.45;;;28.90;6.00;;;;;;4989874;28;20088;-77
2021/03/29 11:59:49;;;;;;;9.38;1.98;;;28.00;5.50;;;;;;4992911;28;20046;-78
2021/03/29 12:02:29;;;;;;;14.15;2.40;;;28.60;5.30;;;;;;4990671;28;20034;-76
2021/03/29 12:07:35;;;;;;;14.50;2.65;;;27.90;4.90;;;;;;4990445;28;20057;-78
2021/03/29 12:12:36;;;;;;;8.63;2.08;;;28.30;4.90;;;;;;4992369;28;20129;-77
2021/03/29 12:15:02;;;;;;;11.48;2.30;;;27.30;5.00;;;;;;4993135;28;20534;-77
2021/03/29 12:17:28;;;;;;;9.82;2.20;;;26.50;5.60;;;;;;4993307;28;20100;-77
2021/03/29 12:19:54;;;;;;;6.82;2.03;;;27.40;6.50;;;;;;5007902;28;20121;-77
2021/03/29 12:22:26;;;;;;;5.72;2.17;;;27.80;6.20;;;;;;4989397;28;20076;-78
2021/03/29 12:24:55;;;;;;;10.30;2.10;;;27.60;5.70;;;;;;4991506;28;20092;-78
2021/03/29 12:27:22;;;;;;;9.13;1.80;;;27.70;6.30;;;;;;4984986;28;20510;-77
2021/03/29 12:29:48;;;;;;;9.30;1.70;;;26.80;6.60;;;;;;4979850;28;20042;-78
2021/03/29 12:32:18;;;;;;;8.00;1.92;;;27.90;6.20;;;;;;4996262;28;20042;-78
2021/03/29 12:34:55;;;;;;;7.53;1.92;;;27.90;5.50;;;;;;4995256;28;20042;-78
2021/03/29 12:37:23;;;;;;;7.68;2.10;;;27.50;5.40;;;;;;4992405;28;20091;-78
2021/03/29 12:40:05;;;;;;;7.22;2.65;;;27.30;6.30;;;;;;4995650;28;20446;-78
2021/03/29 12:42:35;;;;;;;10.45;2.40;;;27.00;5.20;;;;;;4991342;28;20027;-78
2021/03/29 12:45:01;;;;;;;9.80;2.00;;;27.70;6.30;;;;;;4996770;28;20564;-79
2021/03/29 12:47:29;;;;;;;8.30;2.10;;;28.00;6.40;;;;;;4996741;28;20093;-77
2021/03/29 12:49:56;;;;;;;7.80;2.00;;;28.60;5.30;;;;;;4995455;28;20109;-77
2021/03/29 12:52:22;;;;;;;7.28;2.13;;;27.90;5.40;;;;;;4996487;28;20027;-78
2021/03/29 12:54:50;;;;;;;5.53;1.60;;;27.90;5.80;;;;;;4995258;28;20057;-78
2021/03/29 12:57:18;;;;;;;8.45;1.88;;;27.90;5.00;;;;;;4991162;28;20046;-78
2021/03/29 12:59:44;;;;;;;6.55;1.90;;;27.60;5.90;;;;;;4994054;28;20121;-78
2021/03/29 13:02:10;;;;;;;7.15;2.33;;;28.10;5.70;;;;;;4988916;28;20450;-77